sensor_id;sensor_type;location;lat;lon;timestamp;pressure;altitude;pressure_sealevel;temperature
45850;BMP180;10739;52.198;20.908;2023-07-31T00:01:14;99689.00;;;21.40
45850;BMP180;10739;52.198;20.908;2023-07-31T00:03:40;99697.00;;;21.20
45850;BMP180;10739;52.198;20.908;2023-07-31T00:06:06;99700.00;;;21.30
45850;BMP180;10739;52.198;20.908;2023-07-31T00:08:33;99702.00;;;21.30
45850;BMP180;10739;52.198;20.908;2023-07-31T00:10:59;99700.00;;;21.40
45850;BMP180;10739;52.198;20.908;2023-07-31T00:13:25;99698.00;;;21.10
45850;BMP180;10739;52.198;20.908;2023-07-31T00:15:51;99697.00;;;21.20
45850;BMP180;10739;52.198;20.908;2023-07-31T00:18:17;99704.00;;;20.90
45850;BMP180;10739;52.198;20.908;2023-07-31T00:20:44;99701.00;;;21.10
45850;BMP180;10739;52.198;20.908;2023-07-31T00:23:10;99704.00;;;21.20
45850;BMP180;10739;52.198;20.908;2023-07-31T00:25:36;99700.00;;;21.00
45850;BMP180;10739;52.198;20.908;2023-07-31T00:28:02;99694.00;;;21.10
45850;BMP180;10739;52.198;20.908;2023-07-31T00:30:28;99695.00;;;21.10
45850;BMP180;10739;52.198;20.908;2023-07-31T00:32:55;99698.00;;;20.90
45850;BMP180;10739;52.198;20.908;2023-07-31T00:35:21;99694.00;;;20.90
45850;BMP180;10739;52.198;20.908;2023-07-31T00:37:47;99687.00;;;20.60
45850;BMP180;10739;52.198;20.908;2023-07-31T00:40:14;99688.00;;;20.60
45850;BMP180;10739;52.198;20.908;2023-07-31T00:42:40;99681.00;;;20.80
45850;BMP180;10739;52.198;20.908;2023-07-31T00:45:06;99676.00;;;20.70
45850;BMP180;10739;52.198;20.908;2023-07-31T00:47:33;99687.00;;;20.60
45850;BMP180;10739;52.198;20.908;2023-07-31T00:49:59;99685.00;;;20.70
45850;BMP180;10739;52.198;20.908;2023-07-31T00:52:25;99686.00;;;20.60
45850;BMP180;10739;52.198;20.908;2023-07-31T00:54:52;99680.00;;;20.40
45850;BMP180;10739;52.198;20.908;2023-07-31T00:57:18;99683.00;;;20.50
45850;BMP180;10739;52.198;20.908;2023-07-31T00:59:45;99685.00;;;20.50
45850;BMP180;10739;52.198;20.908;2023-07-31T01:02:12;99686.00;;;20.50
45850;BMP180;10739;52.198;20.908;2023-07-31T01:04:39;99695.00;;;20.50
45850;BMP180;10739;52.198;20.908;2023-07-31T01:07:24;99694.00;;;20.60
45850;BMP180;10739;52.198;20.908;2023-07-31T01:10:16;99694.00;;;20.50
45850;BMP180;10739;52.198;20.908;2023-07-31T01:12:45;99692.00;;;20.30
45850;BMP180;10739;52.198;20.908;2023-07-31T01:15:13;99692.00;;;20.30
45850;BMP180;10739;52.198;20.908;2023-07-31T01:17:42;99690.00;;;20.40
45850;BMP180;10739;52.198;20.908;2023-07-31T01:20:22;99702.00;;;20.60
45850;BMP180;10739;52.198;20.908;2023-07-31T01:25:45;99690.00;;;20.60
45850;BMP180;10739;52.198;20.908;2023-07-31T01:28:19;99695.00;;;20.60
45850;BMP180;10739;52.198;20.908;2023-07-31T01:30:48;99691.00;;;20.70
45850;BMP180;10739;52.198;20.908;2023-07-31T01:33:16;99693.00;;;20.60
45850;BMP180;10739;52.198;20.908;2023-07-31T01:35:46;99702.00;;;20.50
45850;BMP180;10739;52.198;20.908;2023-07-31T01:38:13;99690.00;;;20.40
45850;BMP180;10739;52.198;20.908;2023-07-31T01:40:43;99690.00;;;20.40
45850;BMP180;10739;52.198;20.908;2023-07-31T01:43:09;99697.00;;;20.40
45850;BMP180;10739;52.198;20.908;2023-07-31T01:45:35;99699.00;;;20.50
45850;BMP180;10739;52.198;20.908;2023-07-31T01:48:01;99701.00;;;20.30
45850;BMP180;10739;52.198;20.908;2023-07-31T01:50:28;99697.00;;;20.30
45850;BMP180;10739;52.198;20.908;2023-07-31T01:52:54;99697.00;;;20.20
45850;BMP180;10739;52.198;20.908;2023-07-31T01:55:21;99707.00;;;20.20
45850;BMP180;10739;52.198;20.908;2023-07-31T01:57:48;99704.00;;;20.30
45850;BMP180;10739;52.198;20.908;2023-07-31T02:00:15;99691.00;;;20.20
45850;BMP180;10739;52.198;20.908;2023-07-31T02:02:41;99707.00;;;20.10
45850;BMP180;10739;52.198;20.908;2023-07-31T02:05:08;99705.00;;;19.90
45850;BMP180;10739;52.198;20.908;2023-07-31T02:07:34;99712.00;;;20.00
45850;BMP180;10739;52.198;20.908;2023-07-31T02:10:00;99711.00;;;20.10
45850;BMP180;10739;52.198;20.908;2023-07-31T02:12:27;99702.00;;;20.20
45850;BMP180;10739;52.198;20.908;2023-07-31T02:14:53;99704.00;;;20.20
45850;BMP180;10739;52.198;20.908;2023-07-31T02:17:19;99715.00;;;20.00
45850;BMP180;10739;52.198;20.908;2023-07-31T02:19:45;99721.00;;;20.00
45850;BMP180;10739;52.198;20.908;2023-07-31T02:22:12;99718.00;;;20.00
45850;BMP180;10739;52.198;20.908;2023-07-31T02:24:38;99718.00;;;20.20
45850;BMP180;10739;52.198;20.908;2023-07-31T02:27:05;99717.00;;;19.90
45850;BMP180;10739;52.198;20.908;2023-07-31T02:29:31;99718.00;;;19.90
45850;BMP180;10739;52.198;20.908;2023-07-31T02:31:57;99716.00;;;19.70
45850;BMP180;10739;52.198;20.908;2023-07-31T02:34:23;99718.00;;;19.90
45850;BMP180;10739;52.198;20.908;2023-07-31T02:36:50;99730.00;;;20.00
45850;BMP180;10739;52.198;20.908;2023-07-31T02:39:16;99731.00;;;19.80
45850;BMP180;10739;52.198;20.908;2023-07-31T02:41:42;99724.00;;;19.90
45850;BMP180;10739;52.198;20.908;2023-07-31T02:44:08;99727.00;;;19.80
45850;BMP180;10739;52.198;20.908;2023-07-31T02:46:36;99730.00;;;19.90
45850;BMP180;10739;52.198;20.908;2023-07-31T02:49:02;99721.00;;;20.10
45850;BMP180;10739;52.198;20.908;2023-07-31T02:51:28;99721.00;;;20.10
45850;BMP180;10739;52.198;20.908;2023-07-31T02:53:54;99710.00;;;20.00
45850;BMP180;10739;52.198;20.908;2023-07-31T02:56:21;99719.00;;;19.90
45850;BMP180;10739;52.198;20.908;2023-07-31T02:58:47;99713.00;;;19.90
45850;BMP180;10739;52.198;20.908;2023-07-31T03:01:13;99720.00;;;19.90
45850;BMP180;10739;52.198;20.908;2023-07-31T03:03:41;99722.00;;;19.90
45850;BMP180;10739;52.198;20.908;2023-07-31T03:06:08;99714.00;;;20.00
45850;BMP180;10739;52.198;20.908;2023-07-31T03:08:34;99720.00;;;20.30
45850;BMP180;10739;52.198;20.908;2023-07-31T03:11:00;99714.00;;;20.40
45850;BMP180;10739;52.198;20.908;2023-07-31T03:13:27;99719.00;;;20.40
45850;BMP180;10739;52.198;20.908;2023-07-31T03:15:53;99725.00;;;20.30
45850;BMP180;10739;52.198;20.908;2023-07-31T03:18:19;99724.00;;;20.20
45850;BMP180;10739;52.198;20.908;2023-07-31T03:20:45;99726.00;;;20.20
45850;BMP180;10739;52.198;20.908;2023-07-31T03:23:11;99728.00;;;19.90
45850;BMP180;10739;52.198;20.908;2023-07-31T03:25:38;99727.00;;;20.00
45850;BMP180;10739;52.198;20.908;2023-07-31T03:28:04;99735.00;;;20.10
45850;BMP180;10739;52.198;20.908;2023-07-31T03:30:31;99739.00;;;20.10
45850;BMP180;10739;52.198;20.908;2023-07-31T03:32:58;99734.00;;;19.80
45850;BMP180;10739;52.198;20.908;2023-07-31T03:35:24;99743.00;;;20.00
45850;BMP180;10739;52.198;20.908;2023-07-31T03:37:50;99747.00;;;20.00
45850;BMP180;10739;52.198;20.908;2023-07-31T03:40:16;99740.00;;;20.00
45850;BMP180;10739;52.198;20.908;2023-07-31T03:42:42;99749.00;;;19.90
45850;BMP180;10739;52.198;20.908;2023-07-31T03:45:10;99748.00;;;20.20
45850;BMP180;10739;52.198;20.908;2023-07-31T03:47:36;99753.00;;;20.00
45850;BMP180;10739;52.198;20.908;2023-07-31T03:50:02;99757.00;;;20.00
45850;BMP180;10739;52.198;20.908;2023-07-31T03:52:28;99753.00;;;20.30
45850;BMP180;10739;52.198;20.908;2023-07-31T03:54:55;99760.00;;;20.10
45850;BMP180;10739;52.198;20.908;2023-07-31T03:57:21;99766.00;;;20.10
45850;BMP180;10739;52.198;20.908;2023-07-31T03:59:47;99765.00;;;20.10
45850;BMP180;10739;52.198;20.908;2023-07-31T04:02:13;99765.00;;;20.00
45850;BMP180;10739;52.198;20.908;2023-07-31T04:04:40;99763.00;;;20.00
45850;BMP180;10739;52.198;20.908;2023-07-31T04:07:06;99759.00;;;19.90
45850;BMP180;10739;52.198;20.908;2023-07-31T04:09:32;99773.00;;;20.10
45850;BMP180;10739;52.198;20.908;2023-07-31T04:11:58;99771.00;;;20.00
45850;BMP180;10739;52.198;20.908;2023-07-31T04:14:24;99769.00;;;19.90
45850;BMP180;10739;52.198;20.908;2023-07-31T04:16:51;99776.00;;;20.10
45850;BMP180;10739;52.198;20.908;2023-07-31T04:19:18;99783.00;;;20.10
45850;BMP180;10739;52.198;20.908;2023-07-31T04:21:44;99781.00;;;20.00
45850;BMP180;10739;52.198;20.908;2023-07-31T04:24:10;99778.00;;;19.90
45850;BMP180;10739;52.198;20.908;2023-07-31T04:26:36;99777.00;;;19.90
45850;BMP180;10739;52.198;20.908;2023-07-31T04:29:03;99778.00;;;20.00
45850;BMP180;10739;52.198;20.908;2023-07-31T04:31:29;99787.00;;;20.10
45850;BMP180;10739;52.198;20.908;2023-07-31T04:33:55;99782.00;;;20.10
45850;BMP180;10739;52.198;20.908;2023-07-31T04:36:21;99786.00;;;20.30
45850;BMP180;10739;52.198;20.908;2023-07-31T04:38:47;99787.00;;;20.00
45850;BMP180;10739;52.198;20.908;2023-07-31T04:41:14;99783.00;;;20.20
45850;BMP180;10739;52.198;20.908;2023-07-31T04:43:40;99788.00;;;20.20
45850;BMP180;10739;52.198;20.908;2023-07-31T04:46:06;99794.00;;;20.20
45850;BMP180;10739;52.198;20.908;2023-07-31T04:48:32;99782.00;;;20.50
45850;BMP180;10739;52.198;20.908;2023-07-31T04:50:59;99787.00;;;20.50
45850;BMP180;10739;52.198;20.908;2023-07-31T04:53:25;99783.00;;;20.30
45850;BMP180;10739;52.198;20.908;2023-07-31T04:55:51;99782.00;;;20.30
45850;BMP180;10739;52.198;20.908;2023-07-31T04:58:17;99788.00;;;20.20
45850;BMP180;10739;52.198;20.908;2023-07-31T05:00:44;99787.00;;;20.20
45850;BMP180;10739;52.198;20.908;2023-07-31T05:03:11;99788.00;;;20.40
45850;BMP180;10739;52.198;20.908;2023-07-31T05:05:37;99787.00;;;20.70
45850;BMP180;10739;52.198;20.908;2023-07-31T05:08:03;99786.00;;;20.40
45850;BMP180;10739;52.198;20.908;2023-07-31T05:10:29;99792.00;;;20.50
45850;BMP180;10739;52.198;20.908;2023-07-31T05:12:56;99794.00;;;20.60
45850;BMP180;10739;52.198;20.908;2023-07-31T05:15:22;99795.00;;;20.30
45850;BMP180;10739;52.198;20.908;2023-07-31T05:17:48;99791.00;;;20.20
45850;BMP180;10739;52.198;20.908;2023-07-31T05:20:14;99796.00;;;20.30
45850;BMP180;10739;52.198;20.908;2023-07-31T05:22:40;99798.00;;;20.20
45850;BMP180;10739;52.198;20.908;2023-07-31T05:25:07;99791.00;;;20.50
45850;BMP180;10739;52.198;20.908;2023-07-31T05:27:33;99788.00;;;20.40
45850;BMP180;10739;52.198;20.908;2023-07-31T05:30:00;99804.00;;;20.50
45850;BMP180;10739;52.198;20.908;2023-07-31T05:32:26;99805.00;;;20.40
45850;BMP180;10739;52.198;20.908;2023-07-31T05:34:52;99811.00;;;20.40
45850;BMP180;10739;52.198;20.908;2023-07-31T05:37:19;99824.00;;;20.50
45850;BMP180;10739;52.198;20.908;2023-07-31T05:39:46;99818.00;;;20.40
45850;BMP180;10739;52.198;20.908;2023-07-31T05:42:12;99812.00;;;20.30
45850;BMP180;10739;52.198;20.908;2023-07-31T05:44:38;99826.00;;;20.30
45850;BMP180;10739;52.198;20.908;2023-07-31T05:47:05;99818.00;;;20.20
45850;BMP180;10739;52.198;20.908;2023-07-31T05:49:31;99820.00;;;20.40
45850;BMP180;10739;52.198;20.908;2023-07-31T05:51:57;99817.00;;;20.10
45850;BMP180;10739;52.198;20.908;2023-07-31T05:54:24;99828.00;;;20.30
45850;BMP180;10739;52.198;20.908;2023-07-31T05:56:50;99830.00;;;20.40
45850;BMP180;10739;52.198;20.908;2023-07-31T05:59:16;99834.00;;;20.50
45850;BMP180;10739;52.198;20.908;2023-07-31T06:01:43;99833.00;;;20.60
45850;BMP180;10739;52.198;20.908;2023-07-31T06:04:09;99839.00;;;20.50
45850;BMP180;10739;52.198;20.908;2023-07-31T06:06:35;99840.00;;;20.50
45850;BMP180;10739;52.198;20.908;2023-07-31T06:09:02;99841.00;;;20.80
45850;BMP180;10739;52.198;20.908;2023-07-31T06:11:29;99841.00;;;20.70
45850;BMP180;10739;52.198;20.908;2023-07-31T06:13:55;99847.00;;;20.40
45850;BMP180;10739;52.198;20.908;2023-07-31T06:16:22;99842.00;;;20.10
45850;BMP180;10739;52.198;20.908;2023-07-31T06:18:48;99849.00;;;20.00
45850;BMP180;10739;52.198;20.908;2023-07-31T06:21:14;99841.00;;;19.70
45850;BMP180;10739;52.198;20.908;2023-07-31T06:23:40;99841.00;;;19.80
45850;BMP180;10739;52.198;20.908;2023-07-31T06:26:07;99838.00;;;20.00
45850;BMP180;10739;52.198;20.908;2023-07-31T06:28:34;99851.00;;;19.90
45850;BMP180;10739;52.198;20.908;2023-07-31T06:31:01;99848.00;;;19.70
45850;BMP180;10739;52.198;20.908;2023-07-31T06:33:28;99845.00;;;19.90
45850;BMP180;10739;52.198;20.908;2023-07-31T06:35:54;99839.00;;;20.30
45850;BMP180;10739;52.198;20.908;2023-07-31T06:38:24;99837.00;;;20.20
45850;BMP180;10739;52.198;20.908;2023-07-31T06:40:51;99843.00;;;20.30
45850;BMP180;10739;52.198;20.908;2023-07-31T06:43:17;99845.00;;;20.30
45850;BMP180;10739;52.198;20.908;2023-07-31T06:45:44;99849.00;;;20.60
45850;BMP180;10739;52.198;20.908;2023-07-31T06:48:10;99858.00;;;20.20
45850;BMP180;10739;52.198;20.908;2023-07-31T06:50:36;99854.00;;;20.10
45850;BMP180;10739;52.198;20.908;2023-07-31T06:53:03;99854.00;;;20.10
45850;BMP180;10739;52.198;20.908;2023-07-31T06:55:29;99852.00;;;20.00
45850;BMP180;10739;52.198;20.908;2023-07-31T06:57:56;99859.00;;;20.50
45850;BMP180;10739;52.198;20.908;2023-07-31T07:00:23;99854.00;;;20.30
45850;BMP180;10739;52.198;20.908;2023-07-31T07:02:50;99854.00;;;20.30
45850;BMP180;10739;52.198;20.908;2023-07-31T07:05:17;99853.00;;;20.50
45850;BMP180;10739;52.198;20.908;2023-07-31T07:07:44;99847.00;;;20.70
45850;BMP180;10739;52.198;20.908;2023-07-31T07:10:10;99850.00;;;20.50
45850;BMP180;10739;52.198;20.908;2023-07-31T07:12:37;99859.00;;;20.50
45850;BMP180;10739;52.198;20.908;2023-07-31T07:15:03;99849.00;;;20.70
45850;BMP180;10739;52.198;20.908;2023-07-31T07:17:30;99842.00;;;20.90
45850;BMP180;10739;52.198;20.908;2023-07-31T07:20:00;99849.00;;;21.10
45850;BMP180;10739;52.198;20.908;2023-07-31T07:22:27;99852.00;;;21.10
45850;BMP180;10739;52.198;20.908;2023-07-31T07:24:54;99850.00;;;21.40
45850;BMP180;10739;52.198;20.908;2023-07-31T07:27:20;99846.00;;;21.50
45850;BMP180;10739;52.198;20.908;2023-07-31T07:29:47;99848.00;;;21.90
45850;BMP180;10739;52.198;20.908;2023-07-31T07:32:13;99841.00;;;22.10
45850;BMP180;10739;52.198;20.908;2023-07-31T07:34:39;99841.00;;;22.10
45850;BMP180;10739;52.198;20.908;2023-07-31T07:37:06;99838.00;;;22.10
45850;BMP180;10739;52.198;20.908;2023-07-31T07:39:32;99834.00;;;22.60
45850;BMP180;10739;52.198;20.908;2023-07-31T07:41:58;99832.00;;;22.30
45850;BMP180;10739;52.198;20.908;2023-07-31T07:44:24;99835.00;;;22.50
45850;BMP180;10739;52.198;20.908;2023-07-31T07:46:51;99839.00;;;22.60
45850;BMP180;10739;52.198;20.908;2023-07-31T07:49:17;99843.00;;;22.50
45850;BMP180;10739;52.198;20.908;2023-07-31T07:51:44;99846.00;;;22.60
45850;BMP180;10739;52.198;20.908;2023-07-31T07:54:09;99849.00;;;22.20
45850;BMP180;10739;52.198;20.908;2023-07-31T07:56:36;99848.00;;;22.50
45850;BMP180;10739;52.198;20.908;2023-07-31T07:59:02;99852.00;;;22.80
45850;BMP180;10739;52.198;20.908;2023-07-31T08:01:28;99843.00;;;22.90
45850;BMP180;10739;52.198;20.908;2023-07-31T08:03:54;99844.00;;;23.30
45850;BMP180;10739;52.198;20.908;2023-07-31T08:06:21;99838.00;;;23.40
45850;BMP180;10739;52.198;20.908;2023-07-31T08:08:48;99836.00;;;23.50
45850;BMP180;10739;52.198;20.908;2023-07-31T08:11:14;99835.00;;;23.30
45850;BMP180;10739;52.198;20.908;2023-07-31T08:13:40;99844.00;;;23.10
45850;BMP180;10739;52.198;20.908;2023-07-31T08:16:07;99838.00;;;23.50
45850;BMP180;10739;52.198;20.908;2023-07-31T08:18:33;99847.00;;;23.70
45850;BMP180;10739;52.198;20.908;2023-07-31T08:20:59;99846.00;;;23.90
45850;BMP180;10739;52.198;20.908;2023-07-31T08:23:27;99842.00;;;24.00
45850;BMP180;10739;52.198;20.908;2023-07-31T08:25:53;99836.00;;;24.30
45850;BMP180;10739;52.198;20.908;2023-07-31T08:28:19;99836.00;;;24.50
45850;BMP180;10739;52.198;20.908;2023-07-31T08:30:46;99835.00;;;24.50
45850;BMP180;10739;52.198;20.908;2023-07-31T08:33:12;99843.00;;;24.80
45850;BMP180;10739;52.198;20.908;2023-07-31T08:35:38;99838.00;;;24.70
45850;BMP180;10739;52.198;20.908;2023-07-31T08:38:04;99839.00;;;24.20
45850;BMP180;10739;52.198;20.908;2023-07-31T08:40:30;99840.00;;;24.30
45850;BMP180;10739;52.198;20.908;2023-07-31T08:42:57;99834.00;;;24.60
45850;BMP180;10739;52.198;20.908;2023-07-31T08:45:28;99829.00;;;24.90
45850;BMP180;10739;52.198;20.908;2023-07-31T08:47:56;99841.00;;;24.40
45850;BMP180;10739;52.198;20.908;2023-07-31T08:50:23;99844.00;;;24.60
45850;BMP180;10739;52.198;20.908;2023-07-31T08:52:51;99852.00;;;24.70
45850;BMP180;10739;52.198;20.908;2023-07-31T08:55:19;99835.00;;;25.00
45850;BMP180;10739;52.198;20.908;2023-07-31T08:57:52;99844.00;;;25.70
45850;BMP180;10739;52.198;20.908;2023-07-31T09:00:21;99842.00;;;25.00
45850;BMP180;10739;52.198;20.908;2023-07-31T09:03:09;99839.00;;;25.10
45850;BMP180;10739;52.198;20.908;2023-07-31T09:05:42;99838.00;;;24.80
45850;BMP180;10739;52.198;20.908;2023-07-31T09:08:10;99839.00;;;24.70
45850;BMP180;10739;52.198;20.908;2023-07-31T09:10:45;99840.00;;;25.50
45850;BMP180;10739;52.198;20.908;2023-07-31T09:13:16;99851.00;;;25.20
45850;BMP180;10739;52.198;20.908;2023-07-31T09:15:45;99851.00;;;25.60
45850;BMP180;10739;52.198;20.908;2023-07-31T09:18:11;99842.00;;;26.00
45850;BMP180;10739;52.198;20.908;2023-07-31T09:20:38;99841.00;;;25.90
45850;BMP180;10739;52.198;20.908;2023-07-31T09:23:13;99842.00;;;25.60
45850;BMP180;10739;52.198;20.908;2023-07-31T09:25:44;99837.00;;;25.50
45850;BMP180;10739;52.198;20.908;2023-07-31T09:28:11;99841.00;;;26.00
45850;BMP180;10739;52.198;20.908;2023-07-31T09:30:50;99842.00;;;24.90
45850;BMP180;10739;52.198;20.908;2023-07-31T09:33:19;99842.00;;;25.40
45850;BMP180;10739;52.198;20.908;2023-07-31T09:35:45;99836.00;;;25.60
45850;BMP180;10739;52.198;20.908;2023-07-31T09:38:15;99841.00;;;26.20
45850;BMP180;10739;52.198;20.908;2023-07-31T09:40:47;99841.00;;;26.20
45850;BMP180;10739;52.198;20.908;2023-07-31T09:43:23;99833.00;;;26.70
45850;BMP180;10739;52.198;20.908;2023-07-31T09:45:56;99837.00;;;27.30
45850;BMP180;10739;52.198;20.908;2023-07-31T09:48:25;99852.00;;;27.40
45850;BMP180;10739;52.198;20.908;2023-07-31T09:50:53;99839.00;;;27.70
45850;BMP180;10739;52.198;20.908;2023-07-31T09:53:28;99835.00;;;27.40
45850;BMP180;10739;52.198;20.908;2023-07-31T09:55:58;99840.00;;;28.00
45850;BMP180;10739;52.198;20.908;2023-07-31T09:58:29;99834.00;;;28.90
45850;BMP180;10739;52.198;20.908;2023-07-31T10:00:58;99834.00;;;28.90
45850;BMP180;10739;52.198;20.908;2023-07-31T10:03:27;99842.00;;;28.10
45850;BMP180;10739;52.198;20.908;2023-07-31T10:05:57;99831.00;;;28.30
45850;BMP180;10739;52.198;20.908;2023-07-31T10:08:28;99841.00;;;29.10
45850;BMP180;10739;52.198;20.908;2023-07-31T10:10:59;99837.00;;;29.60
45850;BMP180;10739;52.198;20.908;2023-07-31T10:13:28;99834.00;;;29.50
45850;BMP180;10739;52.198;20.908;2023-07-31T10:15:59;99826.00;;;29.00
45850;BMP180;10739;52.198;20.908;2023-07-31T10:18:28;99830.00;;;29.50
45850;BMP180;10739;52.198;20.908;2023-07-31T10:20:55;99818.00;;;30.30
45850;BMP180;10739;52.198;20.908;2023-07-31T10:23:24;99832.00;;;29.60
45850;BMP180;10739;52.198;20.908;2023-07-31T10:25:53;99824.00;;;29.50
45850;BMP180;10739;52.198;20.908;2023-07-31T10:28:21;99829.00;;;29.80
45850;BMP180;10739;52.198;20.908;2023-07-31T10:30:49;99823.00;;;30.00
45850;BMP180;10739;52.198;20.908;2023-07-31T10:33:17;99825.00;;;31.00
45850;BMP180;10739;52.198;20.908;2023-07-31T10:35:44;99832.00;;;29.80
45850;BMP180;10739;52.198;20.908;2023-07-31T10:38:13;99828.00;;;29.80
45850;BMP180;10739;52.198;20.908;2023-07-31T10:40:40;99837.00;;;29.70
45850;BMP180;10739;52.198;20.908;2023-07-31T10:43:07;99833.00;;;29.20
45850;BMP180;10739;52.198;20.908;2023-07-31T10:45:43;99828.00;;;29.60
45850;BMP180;10739;52.198;20.908;2023-07-31T10:48:16;99846.00;;;28.90
45850;BMP180;10739;52.198;20.908;2023-07-31T10:50:58;99836.00;;;29.10
45850;BMP180;10739;52.198;20.908;2023-07-31T10:53:28;99840.00;;;29.80
45850;BMP180;10739;52.198;20.908;2023-07-31T10:56:02;99843.00;;;29.30
45850;BMP180;10739;52.198;20.908;2023-07-31T10:58:31;99834.00;;;29.00
45850;BMP180;10739;52.198;20.908;2023-07-31T11:01:05;99830.00;;;29.00
45850;BMP180;10739;52.198;20.908;2023-07-31T11:03:50;99832.00;;;28.90
45850;BMP180;10739;52.198;20.908;2023-07-31T11:06:20;99836.00;;;28.60
45850;BMP180;10739;52.198;20.908;2023-07-31T11:08:50;99834.00;;;28.50
45850;BMP180;10739;52.198;20.908;2023-07-31T11:11:18;99826.00;;;29.50
45850;BMP180;10739;52.198;20.908;2023-07-31T11:13:52;99830.00;;;31.20
45850;BMP180;10739;52.198;20.908;2023-07-31T11:16:25;99827.00;;;31.10
45850;BMP180;10739;52.198;20.908;2023-07-31T11:18:53;99827.00;;;31.30
45850;BMP180;10739;52.198;20.908;2023-07-31T11:21:24;99823.00;;;31.90
45850;BMP180;10739;52.198;20.908;2023-07-31T11:23:56;99822.00;;;30.70
45850;BMP180;10739;52.198;20.908;2023-07-31T11:26:24;99825.00;;;31.10
45850;BMP180;10739;52.198;20.908;2023-07-31T11:28:51;99827.00;;;30.40
45850;BMP180;10739;52.198;20.908;2023-07-31T11:31:18;99830.00;;;29.90
45850;BMP180;10739;52.198;20.908;2023-07-31T11:33:44;99826.00;;;29.30
45850;BMP180;10739;52.198;20.908;2023-07-31T11:36:20;99830.00;;;28.90
45850;BMP180;10739;52.198;20.908;2023-07-31T11:38:47;99834.00;;;28.40
45850;BMP180;10739;52.198;20.908;2023-07-31T11:41:17;99835.00;;;28.40
45850;BMP180;10739;52.198;20.908;2023-07-31T11:43:44;99830.00;;;27.80
45850;BMP180;10739;52.198;20.908;2023-07-31T11:46:11;99828.00;;;27.50
45850;BMP180;10739;52.198;20.908;2023-07-31T11:48:39;99826.00;;;28.00
45850;BMP180;10739;52.198;20.908;2023-07-31T11:51:12;99822.00;;;28.00
45850;BMP180;10739;52.198;20.908;2023-07-31T11:53:51;99825.00;;;27.70
45850;BMP180;10739;52.198;20.908;2023-07-31T11:56:19;99823.00;;;27.20
45850;BMP180;10739;52.198;20.908;2023-07-31T11:58:53;99819.00;;;27.30
45850;BMP180;10739;52.198;20.908;2023-07-31T12:01:22;99821.00;;;27.10
45850;BMP180;10739;52.198;20.908;2023-07-31T12:03:51;99823.00;;;27.40
45850;BMP180;10739;52.198;20.908;2023-07-31T12:06:18;99820.00;;;27.40
45850;BMP180;10739;52.198;20.908;2023-07-31T12:08:47;99820.00;;;27.70
45850;BMP180;10739;52.198;20.908;2023-07-31T12:11:13;99809.00;;;27.40
45850;BMP180;10739;52.198;20.908;2023-07-31T12:13:41;99817.00;;;26.80
45850;BMP180;10739;52.198;20.908;2023-07-31T12:16:07;99818.00;;;27.10
45850;BMP180;10739;52.198;20.908;2023-07-31T12:18:39;99824.00;;;26.70
45850;BMP180;10739;52.198;20.908;2023-07-31T12:21:08;99821.00;;;26.40
45850;BMP180;10739;52.198;20.908;2023-07-31T12:23:36;99810.00;;;26.40
45850;BMP180;10739;52.198;20.908;2023-07-31T12:26:07;99803.00;;;26.80
45850;BMP180;10739;52.198;20.908;2023-07-31T12:28:47;99804.00;;;27.30
45850;BMP180;10739;52.198;20.908;2023-07-31T12:31:22;99806.00;;;26.50
45850;BMP180;10739;52.198;20.908;2023-07-31T12:33:50;99796.00;;;26.70
45850;BMP180;10739;52.198;20.908;2023-07-31T12:36:24;99807.00;;;26.20
45850;BMP180;10739;52.198;20.908;2023-07-31T12:38:52;99795.00;;;25.80
45850;BMP180;10739;52.198;20.908;2023-07-31T12:41:18;99789.00;;;25.50
45850;BMP180;10739;52.198;20.908;2023-07-31T12:43:45;99785.00;;;25.70
45850;BMP180;10739;52.198;20.908;2023-07-31T12:46:12;99782.00;;;26.00
45850;BMP180;10739;52.198;20.908;2023-07-31T12:48:39;99782.00;;;25.80
45850;BMP180;10739;52.198;20.908;2023-07-31T12:51:06;99780.00;;;26.00
45850;BMP180;10739;52.198;20.908;2023-07-31T12:53:35;99772.00;;;26.00
45850;BMP180;10739;52.198;20.908;2023-07-31T12:56:02;99773.00;;;26.30
45850;BMP180;10739;52.198;20.908;2023-07-31T12:58:28;99769.00;;;27.10
45850;BMP180;10739;52.198;20.908;2023-07-31T13:00:54;99772.00;;;27.20
45850;BMP180;10739;52.198;20.908;2023-07-31T13:03:20;99770.00;;;27.40
45850;BMP180;10739;52.198;20.908;2023-07-31T13:05:47;99766.00;;;27.40
45850;BMP180;10739;52.198;20.908;2023-07-31T13:08:13;99759.00;;;27.30
45850;BMP180;10739;52.198;20.908;2023-07-31T13:10:41;99760.00;;;27.70
45850;BMP180;10739;52.198;20.908;2023-07-31T13:13:08;99752.00;;;29.00
45850;BMP180;10739;52.198;20.908;2023-07-31T13:15:35;99749.00;;;29.30
45850;BMP180;10739;52.198;20.908;2023-07-31T13:18:01;99745.00;;;29.80
45850;BMP180;10739;52.198;20.908;2023-07-31T13:20:27;99743.00;;;29.60
45850;BMP180;10739;52.198;20.908;2023-07-31T13:22:53;99754.00;;;28.90
45850;BMP180;10739;52.198;20.908;2023-07-31T13:25:19;99752.00;;;28.70
45850;BMP180;10739;52.198;20.908;2023-07-31T13:27:45;99741.00;;;29.40
45850;BMP180;10739;52.198;20.908;2023-07-31T13:30:12;99747.00;;;30.10
45850;BMP180;10739;52.198;20.908;2023-07-31T13:32:39;99744.00;;;31.00
45850;BMP180;10739;52.198;20.908;2023-07-31T13:35:07;99737.00;;;31.20
45850;BMP180;10739;52.198;20.908;2023-07-31T13:37:34;99739.00;;;30.50
45850;BMP180;10739;52.198;20.908;2023-07-31T13:40:01;99728.00;;;30.40
45850;BMP180;10739;52.198;20.908;2023-07-31T13:42:28;99741.00;;;30.50
45850;BMP180;10739;52.198;20.908;2023-07-31T13:44:54;99723.00;;;30.60
45850;BMP180;10739;52.198;20.908;2023-07-31T13:47:22;99729.00;;;30.80
45850;BMP180;10739;52.198;20.908;2023-07-31T13:49:48;99728.00;;;31.20
45850;BMP180;10739;52.198;20.908;2023-07-31T13:52:15;99725.00;;;31.00
45850;BMP180;10739;52.198;20.908;2023-07-31T13:54:41;99723.00;;;31.30
45850;BMP180;10739;52.198;20.908;2023-07-31T13:57:09;99717.00;;;32.30
45850;BMP180;10739;52.198;20.908;2023-07-31T13:59:35;99715.00;;;32.50
45850;BMP180;10739;52.198;20.908;2023-07-31T14:02:03;99714.00;;;31.90